Time;durP1;ratioP1;P1;durP2;ratioP2;P2;SDS_P1;SDS_P2;PMS_P1;PMS_P2;Temp;Humidity;BMP_temperature;BMP_pressure;BME280_temperature;BME280_humidity;BME280_pressure;Samples;Min_cycle;Max_cycle;Signal;HPM_P1;HPM_P2
2020/12/02 00:02:00;;;;;;;19.85;8.45;;;;;;;-2.01;76.06;101268.58;1777532;81;21110;-75
2020/12/02 00:04:28;;;;;;;14.90;6.67;;;;;;;-2.00;76.10;101266.74;1777301;78;21122;-73
2020/12/02 00:06:56;;;;;;;14.70;7.35;;;;;;;-2.06;75.69;101276.20;1777740;81;21161;-75
2020/12/02 00:09:24;;;;;;;15.58;7.22;;;;;;;-2.11;76.09;101278.47;1784788;78;21116;-75
2020/12/02 00:11:53;;;;;;;15.48;6.78;;;;;;;-2.13;76.39;101278.26;1779584;80;21083;-75
2020/12/02 00:14:27;;;;;;;16.32;7.85;;;;;;;-2.14;76.94;101278.75;1784784;79;21150;-74
2020/12/02 00:16:56;;;;;;;15.37;6.73;;;;;;;-2.15;76.47;101274.36;1790383;80;21167;-77
2020/12/02 00:19:24;;;;;;;15.10;6.90;;;;;;;-2.16;75.90;101283.41;1787344;79;21129;-78
2020/12/02 00:22:02;;;;;;;13.53;6.50;;;;;;;-2.23;75.54;101287.66;1784161;80;21576;-78
2020/12/02 00:24:33;;;;;;;15.38;7.17;;;;;;;-2.26;75.86;101280.38;1778158;79;21403;-77
2020/12/02 00:27:02;;;;;;;17.03;7.10;;;;;;;-2.26;75.39;101285.25;1759091;80;21196;-79
2020/12/02 00:29:30;;;;;;;15.20;7.90;;;;;;;-2.30;75.07;101283.81;1785570;79;21120;-78
2020/12/02 00:31:58;;;;;;;16.05;7.47;;;;;;;-2.32;75.40;101280.44;1772343;81;21126;-75
2020/12/02 00:41:46;;;;;;;17.13;7.43;;;;;;;-2.39;75.16;101286.02;1807788;77;22131;-79
2020/12/02 00:44:16;;;;;;;17.50;7.37;;;;;;;-2.46;75.51;101287.56;1759280;80;21097;-80
2020/12/02 00:46:48;;;;;;;17.77;7.20;;;;;;;-2.51;75.39;101291.16;1757861;80;21156;-79
2020/12/02 00:49:16;;;;;;;18.03;7.97;;;;;;;-2.53;74.58;101277.06;1759716;80;21156;-78
2020/12/02 00:51:44;;;;;;;15.08;6.80;;;;;;;-2.54;75.03;101277.17;1713170;82;21164;-78
2020/12/02 00:54:12;;;;;;;16.35;7.67;;;;;;;-2.57;74.75;101275.14;1723742;83;21189;-78
2020/12/02 00:56:43;;;;;;;20.25;7.95;;;;;;;-2.60;74.65;101279.91;1723288;80;21180;-79
2020/12/02 00:59:22;;;;;;;17.83;7.57;;;;;;;-2.61;74.17;101275.56;1721622;83;21160;-79
2020/12/02 01:02:30;;;;;;;18.90;7.83;;;;;;;-2.69;74.13;101271.38;1717173;80;21124;-78
2020/12/02 01:04:59;;;;;;;16.17;7.22;;;;;;;-2.75;74.63;101269.25;1701344;82;21149;-77
2020/12/02 01:07:27;;;;;;;;;;;;;;;-2.85;74.94;101269.23;1728772;80;21144;-76
2020/12/02 01:09:55;;;;;;;20.92;8.00;;;;;;;-2.87;74.84;101272.55;1756348;80;20161;-76
2020/12/02 01:12:23;;;;;;;19.42;8.10;;;;;;;-2.88;75.04;101279.37;1754207;80;21085;-78
2020/12/02 01:14:51;;;;;;;17.27;7.40;;;;;;;-2.93;75.12;101287.81;1758803;81;21106;-76
2020/12/02 01:17:19;;;;;;;17.70;7.25;;;;;;;-2.94;75.38;101289.31;1756560;80;21251;-75
2020/12/02 01:19:47;;;;;;;18.48;7.83;;;;;;;-2.93;74.91;101281.61;1726255;82;21133;-76
2020/12/02 01:22:42;;;;;;;23.30;8.68;;;;;;;-2.97;75.03;101281.05;1722796;83;21161;-76
2020/12/02 01:25:19;;;;;;;18.53;7.83;;;;;;;-2.97;74.81;101285.07;1722673;83;21113;-76
2020/12/02 01:28:03;;;;;;;18.32;8.00;;;;;;;-3.03;74.13;101277.57;1720096;82;21611;-76
2020/12/02 01:30:32;;;;;;;18.07;7.53;;;;;;;-3.04;74.00;101273.70;1644345;85;21156;-76
2020/12/02 01:33:00;;;;;;;17.60;7.73;;;;;;;-3.03;73.89;101276.23;1694524;82;21185;-77
2020/12/02 01:35:29;;;;;;;17.98;8.18;;;;;;;-3.04;73.68;101275.89;1710670;84;21142;-76
2020/12/02 01:38:02;;;;;;;20.30;7.93;;;;;;;-3.02;73.72;101282.44;1722557;83;21861;-77
2020/12/02 01:40:35;;;;;;;17.70;8.40;;;;;;;-3.01;74.06;101277.45;1721040;82;21161;-75
2020/12/02 01:43:07;;;;;;;17.70;7.90;;;;;;;-3.01;73.75;101282.81;1710663;83;21154;-76
2020/12/02 01:45:48;;;;;;;16.70;7.93;;;;;;;-3.01;73.24;101282.81;1718849;82;21156;-77
2020/12/02 01:48:42;;;;;;;18.63;7.77;;;;;;;-3.02;73.35;101279.77;1718886;83;21156;-76
2020/12/02 01:51:50;;;;;;;19.03;7.53;;;;;;;-3.07;72.92;101280.18;1699587;82;21157;-75
2020/12/02 01:54:35;;;;;;;18.10;7.67;;;;;;;-3.13;73.45;101279.38;1685710;83;21145;-75
2020/12/02 01:57:25;;;;;;;18.50;7.33;;;;;;;-3.15;72.89;101273.80;1692499;83;21721;-80
2020/12/02 02:00:12;;;;;;;15.93;7.30;;;;;;;-3.17;73.38;101279.78;1698724;83;21144;-82
2020/12/02 02:03:14;;;;;;;17.37;7.15;;;;;;;-3.17;72.98;101274.43;1701830;84;21124;-75
2020/12/02 02:06:09;;;;;;;19.13;7.63;;;;;;;-3.23;72.87;101272.65;1690938;83;21615;-83
2020/12/02 02:08:39;;;;;;;19.83;7.80;;;;;;;-3.32;73.09;101273.47;1721538;83;21096;-78
2020/12/02 02:11:09;;;;;;;15.27;7.10;;;;;;;-3.39;73.41;101265.60;1690739;83;21635;-78
2020/12/02 02:14:21;;;;;;;16.37;6.97;;;;;;;-3.37;73.25;101271.70;1674028;85;21105;-81
2020/12/02 02:16:49;;;;;;;17.40;7.90;;;;;;;-3.37;73.35;101262.81;1668553;82;21280;-79
2020/12/02 02:19:21;;;;;;;17.82;7.72;;;;;;;-3.34;73.83;101258.53;1674379;86;21548;-79
2020/12/02 02:21:57;;;;;;;19.20;8.23;;;;;;;-3.32;73.56;101253.88;1673652;82;21120;-77
2020/12/02 02:24:25;;;;;;;16.63;7.20;;;;;;;-3.36;73.61;101255.97;1673954;86;21136;-74
2020/12/02 02:26:54;;;;;;;17.45;7.30;;;;;;;-3.41;73.71;101247.50;1690495;82;21145;-76
2020/12/02 02:29:33;;;;;;;15.40;7.67;;;;;;;-3.43;73.84;101257.98;1679715;83;21165;-75
2020/12/02 02:32:09;;;;;;;17.23;7.17;;;;;;;-3.44;74.19;101256.30;1683331;82;21160;-77
2020/12/02 02:34:39;;;;;;;17.90;7.57;;;;;;;-3.43;73.95;101253.97;1697015;83;21183;-76
2020/12/02 02:37:11;;;;;;;17.60;7.40;;;;;;;-3.44;74.30;101265.67;1697355;83;21140;-77
2020/12/02 02:39:40;;;;;;;17.77;7.67;;;;;;;-3.43;74.49;101281.58;1666211;86;21160;-78
2020/12/02 02:42:35;;;;;;;18.17;8.00;;;;;;;-3.40;74.41;101297.38;1663886;83;21554;-77
2020/12/02 02:45:11;;;;;;;18.80;7.87;;;;;;;-3.41;74.70;101293.00;1671972;86;21241;-77
2020/12/02 02:47:40;;;;;;;23.43;8.30;;;;;;;-3.37;74.67;101290.91;1680361;83;21152;-78
2020/12/02 02:50:11;;;;;;;16.17;7.95;;;;;;;-3.40;74.77;101289.35;1725468;83;21140;-78
2020/12/02 02:52:41;;;;;;;17.20;7.70;;;;;;;-3.37;74.51;101290.91;1710966;82;21133;-78
2020/12/02 02:55:13;;;;;;;20.47;8.20;;;;;;;-3.42;74.35;101288.64;1674158;86;21149;-77
2020/12/02 02:57:42;;;;;;;19.60;7.37;;;;;;;-3.44;74.25;101289.24;1674140;82;21157;-77
2020/12/02 03:00:14;;;;;;;15.83;7.00;;;;;;;-3.45;74.29;101286.23;1714694;82;21141;-78
2020/12/02 03:02:43;;;;;;;18.07;7.50;;;;;;;-3.43;74.32;101288.76;1725248;83;21421;-76
2020/12/02 03:05:11;;;;;;;16.85;7.65;;;;;;;-3.41;74.59;101293.00;1680443;82;21185;-76
2020/12/02 03:07:39;;;;;;;17.23;7.65;;;;;;;-3.41;74.18;101305.52;1652031;85;21166;-79
2020/12/02 03:10:07;;;;;;;19.48;8.10;;;;;;;-3.44;74.51;101303.96;1698788;83;21161;-76
2020/12/02 03:12:34;;;;;;;16.07;7.15;;;;;;;-3.51;74.82;101301.47;1725812;83;21151;-78
2020/12/02 03:15:03;;;;;;;19.00;8.78;;;;;;;-3.48;75.25;101305.22;1649077;85;21129;-75
2020/12/02 03:17:31;;;;;;;15.20;7.40;;;;;;;-3.44;75.43;101304.48;1691210;85;21248;-76
2020/12/02 03:20:15;;;;;;;20.45;8.35;;;;;;;-3.39;75.25;101303.07;1683231;83;21161;-75
2020/12/02 03:22:44;;;;;;;20.57;7.57;;;;;;;-3.42;75.27;101295.81;1672146;84;21144;-76
2020/12/02 03:25:14;;;;;;;18.07;7.80;;;;;;;-3.43;75.47;101291.44;1696334;83;21592;-76
2020/12/02 03:27:42;;;;;;;18.63;7.47;;;;;;;-3.41;75.70;101291.66;1694897;84;21228;-79
2020/12/02 03:30:10;;;;;;;18.80;8.05;;;;;;;-3.38;76.10;101287.38;1696685;83;21401;-75
2020/12/02 03:32:38;;;;;;;17.00;7.30;;;;;;;-3.41;76.15;101288.98;1644980;86;21143;-78
2020/12/02 03:35:06;;;;;;;18.75;8.13;;;;;;;-3.45;76.52;101288.91;1679949;82;21887;-75
2020/12/02 03:37:34;;;;;;;16.93;7.72;;;;;;;-3.55;76.49;101281.80;1692592;83;21164;-75
2020/12/02 03:40:06;;;;;;;17.65;7.22;;;;;;;-3.60;76.80;101286.22;1718565;83;21608;-76
2020/12/02 03:42:34;;;;;;;18.77;7.47;;;;;;;-3.61;77.18;101289.86;1700365;82;21145;-78
2020/12/02 03:45:05;;;;;;;17.63;8.13;;;;;;;-3.59;76.82;101301.28;1691094;85;21232;-76
2020/12/02 03:47:32;;;;;;;16.73;7.10;;;;;;;-3.65;76.70;101303.16;1709582;82;21116;-76
2020/12/02 03:50:00;;;;;;;19.98;8.00;;;;;;;-3.67;76.96;101306.95;1709570;82;21153;-77
2020/12/02 03:52:29;;;;;;;17.00;7.70;;;;;;;-3.72;77.18;101303.82;1708305;83;21110;-77
2020/12/02 03:54:56;;;;;;;;;;;;;;;-3.73;77.67;101300.30;1722959;83;21165;-76
2020/12/02 03:57:24;;;;;;;19.40;7.35;;;;;;;-3.68;77.91;101312.78;1720474;83;20156;-78
2020/12/02 03:59:52;;;;;;;19.50;7.40;;;;;;;-3.66;77.83;101308.63;1720388;83;21128;-80
2020/12/02 04:02:20;;;;;;;18.30;7.53;;;;;;;-3.68;77.21;101301.23;1701570;83;21137;-80
2020/12/02 04:04:48;;;;;;;20.95;8.43;;;;;;;-3.73;77.57;101299.44;1671567;86;21143;-83
2020/12/02 04:07:16;;;;;;;;;;;;;;;-3.72;77.97;101303.34;1652210;84;21212;-77
2020/12/02 04:09:44;;;;;;;15.23;7.33;;;;;;;-3.72;78.08;101295.31;1701980;83;20237;-77
2020/12/02 04:12:12;;;;;;;18.50;7.95;;;;;;;-3.70;78.06;101303.19;1700494;83;21670;-77
2020/12/02 04:14:41;;;;;;;18.37;7.77;;;;;;;-3.76;77.67;101307.72;1710260;83;21104;-77
2020/12/02 04:17:09;;;;;;;18.67;8.30;;;;;;;-3.78;78.00;101298.98;1717840;83;21566;-82
2020/12/02 04:19:37;;;;;;;16.95;7.45;;;;;;;-3.75;78.23;101306.75;1715712;82;21268;-83
2020/12/02 04:22:05;;;;;;;17.70;7.95;;;;;;;-3.77;77.92;101300.20;1724865;83;21247;-82
2020/12/02 04:24:33;;;;;;;18.82;8.70;;;;;;;-3.76;78.38;101301.03;1709189;82;21635;-82
2020/12/02 04:27:01;;;;;;;20.48;8.05;;;;;;;-3.73;78.08;101316.34;1715394;84;21245;-77
2020/12/02 04:29:29;;;;;;;19.92;9.15;;;;;;;-3.73;77.73;101309.66;1684104;82;21173;-81
2020/12/02 04:31:59;;;;;;;19.87;8.27;;;;;;;-3.77;76.79;101301.55;1674247;84;21654;-79
2020/12/02 04:34:27;;;;;;;21.68;9.38;;;;;;;-3.77;76.75;101296.20;1689200;82;21628;-80
2020/12/02 04:36:55;;;;;;;21.80;8.43;;;;;;;-3.78;76.28;101296.31;1701274;84;21125;-78
2020/12/02 04:39:23;;;;;;;18.73;8.15;;;;;;;-3.81;75.88;101297.91;1701600;82;21714;-80
2020/12/02 04:41:52;;;;;;;20.50;8.50;;;;;;;-3.87;75.79;101294.77;1697301;83;21128;-81
2020/12/02 04:44:20;;;;;;;21.75;7.70;;;;;;;-3.87;75.74;101303.31;1713009;82;21118;-81
2020/12/02 04:46:54;;;;;;;16.62;7.50;;;;;;;-3.89;74.95;101303.91;1707722;83;21585;-76
2020/12/02 04:49:33;;;;;;;21.53;8.70;;;;;;;-3.92;75.67;101305.50;1695672;82;21117;-78
2020/12/02 04:52:06;;;;;;;18.70;8.33;;;;;;;-3.92;76.05;101305.50;1692642;85;21648;-80
2020/12/02 04:54:35;;;;;;;18.80;8.77;;;;;;;-3.93;76.33;101311.84;1720494;82;21688;-81
2020/12/02 04:57:03;;;;;;;19.52;8.45;;;;;;;-3.97;76.33;101309.91;1718971;83;21180;-79
2020/12/02 04:59:40;;;;;;;21.20;9.18;;;;;;;-3.95;76.38;101315.14;1721347;82;21228;-77
2020/12/02 05:02:24;;;;;;;20.72;8.70;;;;;;;-3.94;76.41;101318.16;1694100;84;21701;-81
2020/12/02 05:04:58;;;;;;;21.43;8.67;;;;;;;-3.94;76.51;101320.34;1699168;82;21113;-83
2020/12/02 05:07:28;;;;;;;20.87;8.40;;;;;;;-3.92;76.52;101318.87;1679065;84;21136;-87
2020/12/02 05:10:04;;;;;;;20.50;8.50;;;;;;;-3.93;76.51;101322.54;1714553;84;21117;-84
2020/12/02 05:12:39;;;;;;;23.43;8.00;;;;;;;-3.93;76.66;101330.08;1675000;82;21644;-77
2020/12/02 05:15:19;;;;;;;19.10;8.30;;;;;;;-3.95;76.24;101334.69;1674334;83;21180;-88
2020/12/02 05:18:04;;;;;;;20.73;8.53;;;;;;;-3.95;76.70;101323.16;1675807;82;21220;-85
2020/12/02 05:20:34;;;;;;;21.93;8.73;;;;;;;-3.98;76.76;101343.47;1677027;83;21234;-75
2020/12/02 05:23:21;;;;;;;23.77;9.20;;;;;;;-4.07;77.32;101342.89;1684601;83;21177;-80
2020/12/02 05:25:52;;;;;;;21.83;8.63;;;;;;;-4.11;77.71;101336.97;1691821;84;21216;-79
2020/12/02 05:28:31;;;;;;;19.57;8.67;;;;;;;-4.11;77.62;101346.80;1711530;82;21097;-82
2020/12/02 05:31:16;;;;;;;22.10;9.20;;;;;;;-4.12;77.79;101342.42;1711791;84;21108;-81
2020/12/02 05:33:45;;;;;;;24.47;8.77;;;;;;;-4.12;78.00;101346.43;1704182;82;21172;-80
2020/12/02 05:36:26;;;;;;;29.57;10.80;;;;;;;-4.13;78.09;101347.42;1697965;84;21129;-82
2020/12/02 05:39:20;;;;;;;21.00;9.30;;;;;;;-4.12;78.38;101350.44;1701047;82;21168;-80
2020/12/02 05:41:51;;;;;;;25.53;10.17;;;;;;;-4.13;78.11;101350.09;1705936;84;21765;-80
2020/12/02 05:44:27;;;;;;;19.17;9.37;;;;;;;-4.15;78.54;101358.74;1668194;83;21165;-81
2020/12/02 05:46:59;;;;;;;23.30;9.80;;;;;;;-4.16;78.63;101355.70;1689951;84;21176;-81
2020/12/02 05:49:47;;;;;;;24.13;10.17;;;;;;;-4.15;78.43;101356.07;1702950;82;21675;-79
2020/12/02 05:52:32;;;;;;;27.32;10.35;;;;;;;-4.13;78.60;101357.64;1695607;84;21594;-81
2020/12/02 05:55:32;;;;;;;26.47;10.17;;;;;;;-4.09;78.52;101360.89;1704419;82;21755;-79
2020/12/02 05:58:14;;;;;;;26.43;9.67;;;;;;;-4.05;78.75;101366.36;1697607;82;21642;-78
2020/12/02 06:00:43;;;;;;;24.40;10.73;;;;;;;-4.03;78.65;101372.42;1683122;83;21251;-75
2020/12/02 06:03:12;;;;;;;;;;;;;;;-4.02;78.83;101371.42;1718308;82;21580;-81
2020/12/02 06:05:41;;;;;;;23.93;9.87;;;;;;;-3.97;79.21;101368.73;1713134;83;20534;-77
2020/12/02 06:08:09;;;;;;;25.35;9.95;;;;;;;-3.91;79.07;101364.22;1694329;84;21291;-78
2020/12/02 06:10:48;;;;;;;26.50;11.35;;;;;;;-3.90;78.63;101356.53;1670307;85;21688;-79
2020/12/02 06:13:41;;;;;;;33.80;11.47;;;;;;;-3.93;78.69;101356.82;1722863;83;21156;-75
2020/12/02 06:16:25;;;;;;;25.77;10.97;;;;;;;-3.90;78.98;101362.40;1720001;82;21080;-80
2020/12/02 06:18:53;;;;;;;23.87;10.90;;;;;;;-3.84;78.96;101368.55;1717600;83;21145;-79
2020/12/02 06:21:36;;;;;;;27.63;10.83;;;;;;;-3.80;78.82;101370.01;1721402;82;21172;-77
2020/12/02 06:24:04;;;;;;;23.20;10.30;;;;;;;-3.76;78.62;101378.12;1713852;82;21124;-84
2020/12/02 06:26:43;;;;;;;23.40;8.88;;;;;;;-3.73;77.97;101385.89;1667780;83;21248;-79
2020/12/02 06:29:35;;;;;;;22.50;10.33;;;;;;;-3.75;77.62;101383.84;1691643;84;21161;-78
2020/12/02 06:32:20;;;;;;;23.10;9.67;;;;;;;-3.76;77.60;101388.81;1721693;83;21126;-79
2020/12/02 06:34:49;;;;;;;25.00;11.20;;;;;;;-3.79;77.91;101395.75;1722124;80;21576;-84
2020/12/02 06:37:21;;;;;;;22.40;9.57;;;;;;;-3.77;77.50;101400.52;1718635;82;21300;-80
2020/12/02 06:39:58;;;;;;;23.43;10.37;;;;;;;-3.75;77.48;101397.70;1716292;83;21160;-83
2020/12/02 06:42:33;;;;;;;22.77;9.70;;;;;;;-3.76;77.27;101387.48;1720854;82;21560;-81
2020/12/02 06:45:34;;;;;;;22.67;10.70;;;;;;;-3.75;77.30;101393.20;1685035;84;21170;-80
2020/12/02 06:48:26;;;;;;;25.37;11.13;;;;;;;-3.76;77.31;101391.49;1686069;84;21181;-79
2020/12/02 06:50:58;;;;;;;24.33;9.47;;;;;;;-3.80;77.03;101392.73;1719873;83;21621;-80
2020/12/02 06:53:27;;;;;;;23.20;9.93;;;;;;;-3.79;77.62;101398.43;1700972;82;21619;-82
2020/12/02 06:56:00;;;;;;;24.23;10.97;;;;;;;-3.81;77.26;101390.17;1697778;82;21137;-81
2020/12/02 06:58:28;;;;;;;29.60;10.03;;;;;;;-3.86;77.18;101400.78;1714892;82;21143;-79
2020/12/02 07:01:00;;;;;;;26.48;11.12;;;;;;;-3.85;77.65;101397.62;1704471;83;21240;-80
2020/12/02 07:03:37;;;;;;;27.03;9.37;;;;;;;-3.79;77.90;101407.80;1698984;82;21733;-77
2020/12/02 07:06:20;;;;;;;23.52;9.85;;;;;;;-3.75;77.26;101405.72;1711162;83;21118;-78
2020/12/02 07:09:11;;;;;;;25.37;10.50;;;;;;;-3.72;77.53;101412.16;1677746;82;21161;-76
2020/12/02 07:11:43;;;;;;;24.80;10.57;;;;;;;-3.78;77.22;101406.83;1709122;84;21232;-80
2020/12/02 07:14:25;;;;;;;24.63;10.47;;;;;;;-3.79;77.12;101414.48;1687953;82;21208;-78
2020/12/02 07:16:58;;;;;;;29.43;11.57;;;;;;;-3.86;77.23;101411.96;1714837;82;21133;-78
2020/12/02 07:19:33;;;;;;;26.10;10.07;;;;;;;-3.79;77.73;101414.48;1691859;82;21619;-79
2020/12/02 07:22:04;;;;;;;23.80;10.63;;;;;;;-3.75;77.62;101408.40;1686259;85;21608;-80
2020/12/02 07:24:37;;;;;;;25.90;9.87;;;;;;;-3.74;77.19;101410.93;1673480;82;21173;-79
2020/12/02 07:27:06;;;;;;;24.33;10.10;;;;;;;-3.74;77.45;101410.11;1692434;83;21148;-80
2020/12/02 07:29:39;;;;;;;23.50;9.55;;;;;;;-3.74;77.56;101414.94;1694340;82;21254;-85
2020/12/02 07:32:19;;;;;;;26.87;10.37;;;;;;;-3.69;77.40;101421.27;1675426;82;21140;-81
2020/12/02 07:34:47;;;;;;;26.00;10.70;;;;;;;-3.67;77.25;101418.83;1714795;82;21655;-80
2020/12/02 07:37:18;;;;;;;25.70;10.88;;;;;;;-3.64;77.49;101421.73;1700394;82;21184;-79
2020/12/02 07:39:53;;;;;;;27.63;9.80;;;;;;;-3.65;77.40;101420.02;1697450;82;21695;-79
2020/12/02 07:42:32;;;;;;;27.43;10.83;;;;;;;-3.63;77.14;101424.27;1692014;84;21260;-79
2020/12/02 07:45:17;;;;;;;27.10;10.70;;;;;;;-3.64;77.44;101419.06;1694718;82;21201;-85
2020/12/02 07:48:13;;;;;;;27.82;10.13;;;;;;;-3.67;77.14;101416.16;1684020;82;21611;-82
2020/12/02 07:50:44;;;;;;;24.73;10.10;;;;;;;-3.68;77.73;101415.78;1666749;84;21140;-83
2020/12/02 07:53:27;;;;;;;29.20;10.07;;;;;;;-3.69;77.41;101424.77;1710880;82;21612;-82
2020/12/02 07:55:57;;;;;;;25.23;10.63;;;;;;;-3.69;77.49;101430.12;1712754;82;21177;-80
2020/12/02 07:58:31;;;;;;;25.80;10.10;;;;;;;-3.68;77.62;101428.30;1737466;82;21584;-79
2020/12/02 08:01:25;;;;;;;27.33;10.47;;;;;;;-3.66;77.81;101424.52;1719982;82;21279;-79
2020/12/02 08:03:53;;;;;;;23.97;10.90;;;;;;;-3.63;77.45;101428.77;1687411;83;21250;-80
2020/12/02 08:06:47;;;;;;;26.70;10.40;;;;;;;-3.60;77.55;101431.19;1690846;82;21177;-78
2020/12/02 08:09:15;;;;;;;30.33;10.67;;;;;;;-3.60;77.44;101430.70;1673701;82;21187;-82
2020/12/02 08:12:01;;;;;;;24.83;10.33;;;;;;;-3.59;77.62;101433.72;1677801;82;21628;-81
2020/12/02 08:14:41;;;;;;;26.47;11.17;;;;;;;-3.58;77.23;101430.08;1678729;84;21129;-78
2020/12/02 08:17:22;;;;;;;26.23;10.97;;;;;;;-3.56;77.11;101434.80;1696491;82;21247;-78
2020/12/02 08:19:53;;;;;;;23.30;10.35;;;;;;;-3.59;77.09;101427.03;1713631;82;21157;-76
2020/12/02 08:22:48;;;;;;;26.40;11.13;;;;;;;-3.58;76.72;101424.73;1716640;82;21141;-77
2020/12/02 08:25:23;;;;;;;30.30;11.83;;;;;;;-3.60;76.40;101421.34;1717575;84;21129;-80
2020/12/02 08:27:55;;;;;;;26.23;10.70;;;;;;;-3.59;76.59;101424.35;1706266;82;21161;-78
2020/12/02 08:30:25;;;;;;;21.43;10.00;;;;;;;-3.56;76.89;101417.89;1648243;83;21125;-78
2020/12/02 08:33:00;;;;;;;29.53;11.07;;;;;;;-3.55;75.78;101429.83;1694058;82;21605;-78
2020/12/02 08:35:50;;;;;;;30.33;9.97;;;;;;;-3.58;76.41;101421.20;1700520;82;21206;-77
2020/12/02 08:38:30;;;;;;;23.97;9.87;;;;;;;-3.60;75.87;101418.66;1685138;82;21191;-76
2020/12/02 08:40:59;;;;;;;23.07;10.47;;;;;;;-3.63;75.93;101416.23;1713904;84;21315;-78
2020/12/02 08:43:37;;;;;;;24.63;9.73;;;;;;;-3.71;75.64;101413.84;1701961;82;21218;-76
2020/12/02 08:46:17;;;;;;;24.80;11.17;;;;;;;-3.71;76.41;101410.68;1681844;82;21184;-78
2020/12/02 08:48:49;;;;;;;23.22;10.13;;;;;;;-3.67;75.91;101404.59;1703033;82;21644;-79
2020/12/02 08:51:20;;;;;;;24.27;9.77;;;;;;;-3.64;76.18;101401.15;1690606;82;21223;-80
2020/12/02 08:53:48;;;;;;;28.13;11.30;;;;;;;-3.62;76.20;101408.58;1709552;82;21133;-80
2020/12/02 08:56:35;;;;;;;25.90;10.32;;;;;;;-3.62;76.10;101414.42;1708836;82;21160;-79
2020/12/02 08:59:05;;;;;;;25.60;10.10;;;;;;;-3.58;75.84;101415.84;1703390;82;21158;-78
2020/12/02 09:01:33;;;;;;;25.63;10.53;;;;;;;-3.54;76.01;101414.11;1712948;84;21173;-77
2020/12/02 09:04:01;;;;;;;26.23;10.78;;;;;;;-3.54;75.35;101411.44;1715833;82;21177;-78
2020/12/02 09:06:29;;;;;;;23.10;9.85;;;;;;;-3.56;75.17;101404.03;1711312;83;21680;-78
2020/12/02 09:08:57;;;;;;;22.65;9.85;;;;;;;-3.57;74.63;101408.19;1702093;82;21186;-77
2020/12/02 09:11:32;;;;;;;20.85;9.70;;;;;;;-3.63;75.21;101394.84;1678932;84;21160;-79
2020/12/02 09:14:01;;;;;;;25.83;10.20;;;;;;;-3.63;75.21;101394.84;1687401;82;21147;-81
2020/12/02 09:16:32;;;;;;;;;;;;;;;-3.59;75.70;101391.42;1742466;82;21164;-78
2020/12/02 09:19:01;;;;;;;25.77;10.00;;;;;;;-3.54;75.80;101396.72;1716468;82;20181;-80
2020/12/02 09:21:29;;;;;;;;;;;;;;;-3.50;75.37;101391.48;1724143;82;21169;-80
2020/12/02 09:23:57;;;;;;;22.48;9.83;;;;;;;-3.49;75.49;101393.16;1705810;82;20164;-81
2020/12/02 09:26:30;;;;;;;25.13;10.60;;;;;;;-3.50;74.56;101391.48;1713512;83;21128;-80
2020/12/02 09:28:58;;;;;;;26.13;10.53;;;;;;;-3.53;74.80;101386.88;1720147;82;21180;-80
2020/12/02 09:31:27;;;;;;;23.73;10.18;;;;;;;-3.51;74.98;101392.45;1699848;83;21248;-78
2020/12/02 09:33:55;;;;;;;22.33;10.10;;;;;;;-3.49;74.73;101385.13;1691514;82;21176;-79
2020/12/02 09:36:23;;;;;;;21.37;9.73;;;;;;;-3.50;74.79;101388.80;1694763;82;21168;-79
2020/12/02 09:38:52;;;;;;;22.15;10.38;;;;;;;-3.55;74.22;101387.02;1706375;82;21152;-79
2020/12/02 09:41:47;;;;;;;22.73;10.37;;;;;;;-3.57;75.04;101390.80;1694378;82;21550;-79
2020/12/02 09:44:51;;;;;;;26.90;10.27;;;;;;;-3.54;74.94;101390.03;1707757;83;21214;-81
2020/12/02 09:47:19;;;;;;;21.20;9.80;;;;;;;-3.52;75.14;101388.58;1745794;82;21141;-80
2020/12/02 09:49:47;;;;;;;23.55;9.55;;;;;;;-3.48;74.97;101382.83;1738323;82;21152;-78
2020/12/02 09:52:37;;;;;;;24.57;10.27;;;;;;;-3.47;74.88;101385.87;1733169;82;21132;-79
2020/12/02 09:55:16;;;;;;;23.70;9.63;;;;;;;-3.47;75.12;101385.02;1691283;84;21214;-79
2020/12/02 09:57:44;;;;;;;24.93;9.20;;;;;;;-3.42;74.87;101386.81;1672085;83;21576;-81
2020/12/02 10:00:13;;;;;;;25.53;9.70;;;;;;;-3.40;75.06;101383.02;1734613;83;21144;-82
2020/12/02 10:03:06;;;;;;;22.42;9.83;;;;;;;-3.39;74.30;101378.02;1714325;82;21231;-78
2020/12/02 10:06:08;;;;;;;27.17;10.30;;;;;;;-3.40;74.82;101382.17;1697326;83;21669;-79
2020/12/02 10:08:55;;;;;;;22.83;9.87;;;;;;;-3.41;75.37;101386.67;1708068;82;21181;-85
2020/12/02 10:11:47;;;;;;;26.65;11.75;;;;;;;-3.44;74.99;101381.58;1707927;82;21132;-82
2020/12/02 10:14:38;;;;;;;25.03;10.33;;;;;;;-3.42;74.84;101382.31;1701791;82;21178;-76
2020/12/02 10:17:31;;;;;;;22.00;9.50;;;;;;;-3.47;74.35;101385.87;1699599;83;21573;-77
2020/12/02 10:20:26;;;;;;;22.60;9.30;;;;;;;-3.45;74.46;101384.39;1698850;82;21230;-71
2020/12/02 10:23:37;;;;;;;21.10;9.40;;;;;;;-3.43;74.63;101378.41;1675282;82;21120;-73
2020/12/02 10:26:37;;;;;;;22.03;9.00;;;;;;;-3.46;74.84;101372.83;1697339;83;21235;-72
2020/12/02 10:29:35;;;;;;;22.07;8.70;;;;;;;-3.53;74.70;101372.16;1689036;83;21288;-77
2020/12/02 10:32:25;;;;;;;22.50;10.27;;;;;;;-3.52;75.09;101373.38;1662852;84;21112;-74
2020/12/02 10:34:53;;;;;;;21.07;8.87;;;;;;;-3.52;74.94;101376.05;1694544;82;21129;-75
2020/12/02 10:37:26;;;;;;;21.42;9.45;;;;;;;-3.51;74.75;101376.88;1694146;84;21279;-75
2020/12/02 10:39:54;;;;;;;27.37;10.40;;;;;;;-3.49;75.19;101371.75;1686839;82;21176;-74
2020/12/02 10:42:41;;;;;;;24.55;10.48;;;;;;;-3.43;74.92;101370.38;1703785;84;21247;-74
2020/12/02 10:45:13;;;;;;;22.27;9.60;;;;;;;-3.42;74.95;101373.43;1698184;82;21137;-73
2020/12/02 10:48:21;;;;;;;22.90;10.60;;;;;;;-3.39;75.24;101375.85;1708753;82;21530;-76
2020/12/02 10:50:51;;;;;;;22.90;9.63;;;;;;;-3.36;75.24;101379.09;1716101;82;21801;-74
2020/12/02 10:53:24;;;;;;;23.13;9.07;;;;;;;-3.32;74.82;101378.35;1685461;83;21157;-75
2020/12/02 10:55:54;;;;;;;25.13;9.70;;;;;;;-3.30;74.55;101381.73;1672102;83;21261;-74
2020/12/02 10:58:29;;;;;;;22.95;9.70;;;;;;;-3.35;74.49;101379.95;1691185;83;21172;-75
2020/12/02 11:01:00;;;;;;;25.43;9.80;;;;;;;-3.35;74.82;101379.95;1690000;83;21208;-74
2020/12/02 11:03:34;;;;;;;25.30;10.27;;;;;;;-3.34;75.26;101378.98;1712034;83;21130;-73
2020/12/02 11:06:14;;;;;;;20.57;9.80;;;;;;;-3.35;74.45;101375.45;1710509;83;21224;-73
2020/12/02 11:09:06;;;;;;;23.07;9.93;;;;;;;-3.34;75.15;101374.45;1713053;83;21153;-74
2020/12/02 11:12:04;;;;;;;27.43;9.83;;;;;;;-3.35;74.55;101370.09;1691638;83;21705;-73
2020/12/02 11:14:56;;;;;;;25.77;9.80;;;;;;;-3.36;74.36;101368.39;1704192;83;21141;-76
2020/12/02 11:17:49;;;;;;;24.57;9.13;;;;;;;-3.38;74.55;101374.37;1695631;83;21228;-75
2020/12/02 11:20:25;;;;;;;22.53;9.93;;;;;;;-3.38;74.23;101366.82;1703939;84;21161;-75
2020/12/02 11:23:05;;;;;;;25.93;9.80;;;;;;;-3.37;74.29;101372.55;1677927;84;21515;-75
2020/12/02 11:26:02;;;;;;;23.90;9.60;;;;;;;-3.33;73.98;101376.64;1676173;84;21701;-74
2020/12/02 11:28:30;;;;;;;21.93;10.03;;;;;;;-3.34;74.22;101373.11;1682756;83;21261;-73
2020/12/02 11:31:04;;;;;;;24.40;10.32;;;;;;;-3.37;74.07;101376.08;1705641;83;21313;-76
2020/12/02 11:33:55;;;;;;;23.70;9.87;;;;;;;-3.41;74.17;101381.80;1684638;83;21110;-75
2020/12/02 11:36:37;;;;;;;24.80;10.33;;;;;;;-3.42;74.87;101376.96;1705970;84;21176;-75
2020/12/02 11:39:24;;;;;;;23.73;10.40;;;;;;;-3.36;74.53;101380.43;1701193;83;21164;-76
2020/12/02 11:42:32;;;;;;;23.73;10.60;;;;;;;-3.31;75.08;101373.34;1694090;84;21152;-77
2020/12/02 11:45:12;;;;;;;24.60;10.37;;;;;;;-3.26;75.05;101375.13;1704149;84;21248;-75
2020/12/02 11:48:23;;;;;;;27.33;10.70;;;;;;;-3.28;74.71;101376.61;1688383;83;21148;-75
2020/12/02 11:51:20;;;;;;;25.40;9.83;;;;;;;-3.28;74.43;101367.72;1711387;83;21646;-78
2020/12/02 11:53:55;;;;;;;21.80;10.07;;;;;;;-3.31;74.94;101370.17;1708807;83;21171;-75
2020/12/02 11:56:40;;;;;;;23.47;10.17;;;;;;;-3.32;75.07;101363.14;1703646;84;21263;-74
2020/12/02 11:59:15;;;;;;;24.03;9.97;;;;;;;-3.31;74.63;101364.82;1682856;83;21149;-75
2020/12/02 12:01:55;;;;;;;25.57;10.87;;;;;;;-3.32;74.77;101365.82;1708816;84;21121;-74
2020/12/02 12:04:39;;;;;;;25.97;10.40;;;;;;;-3.36;75.20;101368.39;1711342;83;21160;-75
2020/12/02 12:07:32;;;;;;;23.40;10.63;;;;;;;-3.34;75.38;101362.92;1681512;84;21915;-76